KLHM/LHM METAR and TAF weather

Enter ICAO airport designator
Station Type Date Time Source
KLHM METAR 2020/11/27 14:35 UTC NOAA

KLHM 271435Z AUTO 07006KT 10SM CLR 00/M02 A3022 RMK AO1


Station Type Date Time Source
KLHM Decoded METAR 2020/11/27 14:35 UTC NOAA

Station name not available
Nov 27, 2020 - 09:35 AM EST / 2020.11.27 1435 UTC
Wind: from the ENE (070 degrees) at 7 MPH (6 KT):0
Visibility: 10 mile(s):0
Sky conditions: clear
Temperature: 32 F (0 C)
Windchill: 24 F (-4 C):1
Dew Point: 28 F (-2 C)
Relative Humidity: 86%
Pressure (altimeter): 30.22 in. Hg (1023 hPa)
ob: KLHM 271435Z AUTO 07006KT 10SM CLR 00/M02 A3022 RMK AO1
cycle: 14

Station Type Date Time Source
KLHM TAF UTC NOAA

Error!

Example: see airport list